Burns Pinion Ridge Reserve, California Weather observations

Data are for 10 minute period ending at time listed.
 Day   Time   Solar   Ave.   Ave.  Ave.  Vector  Max.   Baro.   Total    
  of    of     Rad.   Air    Rel.  Wind   Wind   Wind  Press.  Precip.   
Year   Day            Temp.  Hum.  Speed  Dir.   Gust                    
2015   (PST)  Kw/m2    F      %     mph   deg.    mph    mb.     in.     
-------------------------------------------------------------------------
 209   12:10   1.00   87.4    14    8.0   212    14.6   876.2    0.00 
 209   12:20   1.02   87.7    14    8.6   231    17.0   876.2    0.00 
 209   12:30   1.02   87.3    14    9.4   214    15.3   876.2    0.00 
 209   12:40   1.01   88.3    14    7.7   232    15.6   876.0    0.00 
 209   12:50   1.00   89.2    14    8.0   211    14.8   875.9    0.00 
 209   13:00   0.99   88.8    14    8.9   223    18.9   875.9    0.00 
 209   13:10   0.98   89.1    13    8.2   207    16.6   875.8    0.00 
 209   13:20   0.96   91.1    12    8.6   151    18.8   875.7    0.00 
 209   13:30   0.95   91.0    12   10.9   148    16.9   875.6    0.00 
 209   13:40   0.94   91.1    12    9.6   149    17.5   875.5    0.00 
 209   13:50   0.92   91.5    12    8.8   152    18.0   875.4    0.00 
 209   14:00   0.90   90.1    12    8.3   172    16.1   875.3    0.00 
 209   14:10   0.88   91.5    12    7.4   194    16.4   875.2    0.00 
 209   14:20   0.85   90.3    12    8.7   202    18.0   875.1    0.00 
 209   14:30   0.83   90.4    12    7.0   228    12.8   875.1    0.00 
 209   14:40   0.80   89.9    12    9.5   220    16.6   875.1    0.00 
 209   14:50   0.77   90.2    12    7.6   216    16.1   875.0    0.00 
 209   15:00   0.74   89.6    13    9.3   212    17.1   874.9    0.00 
 209   15:10   0.72   88.9    13    8.9   210    19.2   874.9    0.00 
 209   15:20   0.68   90.3    12    8.5   215    15.3   874.8    0.00 
 209   15:30   0.65   88.6    13    8.8   205    18.5   874.8    0.00 
 209   15:40   0.62   89.5    13    8.3   209    15.0   874.8    0.00 
 209   15:50   0.58   89.9    13    7.0   204    12.8   874.7    0.00 
 209   16:00   0.55   89.1    13    9.2   214    16.9   874.7    0.00 
 209   16:10   0.52   88.8    13    9.8   219    17.8   874.6    0.00 
 209   16:20   0.48   88.2    13    8.0   201    14.5   874.6    0.00 
 209   16:30   0.45   88.6    13    8.9   219    19.7   874.5    0.00 
 209   16:40   0.41   88.0    14    9.0   206    16.0   874.5    0.00 
 209   16:50   0.37   88.1    14    8.0   204    15.3   874.5    0.00 
 209   17:00   0.34   89.0    14    6.8   212    17.0   874.5    0.00 
 209   17:10   0.30   88.4    14    6.9   211    15.4   874.5    0.00 
 209   17:20   0.27   87.4    14    8.5   216    15.0   874.5    0.00 
 209   17:30   0.23   87.0    14    7.5   212    14.7   874.6    0.00 
 209   17:40   0.20   87.1    15    7.5   201    17.4   874.6    0.00 
 209   17:50   0.16   86.2    15    8.0   209    14.1   874.7    0.00 
 209   18:00   0.13   85.4    15    9.1   220    14.8   874.7    0.00 
 209   18:10   0.10   85.1    15    7.5   208    13.5   874.8    0.00 
 209   18:20   0.07   84.6    16    7.0   215    13.0   874.8    0.00 
 209   18:30   0.04   84.0    16    7.4   204    13.2   875.0    0.00 
 209   18:40   0.02   82.7    17    6.3   208    12.0   875.0    0.00 
 209   18:50   0.01   81.8    18    9.0   212    14.2   875.0    0.00 
 209   19:00   0.00   81.4    19    8.1   213    13.5   875.2    0.00 
 209   19:10   0.00   80.9    21    6.7   208    13.2   875.3    0.00 
 209   19:20   0.00   80.5    22    6.0   213    11.7   875.4    0.00 
 209   19:30   0.00   80.3    22    7.7   211    15.9   875.5    0.00 
 209   19:40   0.00   80.1    23    5.3   218    11.5   875.5    0.00 
 209   19:50   0.00   79.8    24    6.4   209    12.8   875.7    0.00 
 209   20:00   0.00   79.4    24    5.1   203    11.5   875.9    0.00 
 209   20:10   0.00   79.3    25    6.9   207    14.3   875.9    0.00 
 209   20:20   0.00   79.2    26    9.0   212    13.7   876.0    0.00 
 209   20:30   0.00   79.0    26    8.5   212    14.5   876.2    0.00 
 209   20:40   0.00   78.6    27    7.2   206    13.1   876.3    0.00 
 209   20:50   0.00   78.2    28    4.9   207     9.9   876.5    0.00 
 209   21:00   0.00   77.7    28    3.6   175     8.5   876.7    0.00 
 209   21:10   0.00   77.2    29    4.5   184     7.9   876.8    0.00 
 209   21:20   0.00   77.1    28    5.6   194    10.4   876.8    0.00 
 209   21:30   0.00   77.3    28    5.6   197    10.4   876.9    0.00 
 209   21:40   0.00   77.4    28    5.1   205    11.6   876.9    0.00 
 209   21:50   0.00   77.3    29    5.8   205    10.9   877.0    0.00 
 209   22:00   0.00   76.9    30    5.5   211    10.2   877.0    0.00 
 209   22:10   0.00   77.3    30    8.7   216    13.7   877.0    0.00 
 209   22:20   0.00   77.4    29    6.8   212    11.8   877.1    0.00 
 209   22:30   0.00   77.1    28    5.5   218     9.9   877.1    0.00 
 209   22:40   0.00   76.8    29    3.1   222     9.8   877.1    0.00 
 209   22:50   0.00   77.2    28    6.6   215    11.6   877.1    0.00 
 209   23:00   0.00   77.8    28    7.6   214    11.2   877.2    0.00 
 209   23:10   0.00   77.5    28    6.3   218    11.9   877.1    0.00 
 209   23:20   0.00   77.4    28    5.0   212    11.2   877.1    0.00 
 209   23:30   0.00   77.3    28    6.0   208     9.1   877.1    0.00 
 209   23:40   0.00   77.1    28    4.6   209     8.8   877.1    0.00 
 209   23:50   0.00   76.5    29    4.5   206    10.4   877.0    0.00 
 210    0:00   0.00   76.8    29    4.3   216     9.8   876.9    0.00 
 210    0:10   0.00   77.1    30    7.2   215    10.5   876.8    0.00 
 210    0:20   0.00   77.2    31    6.2   212    11.6   876.8    0.00 
 210    0:30   0.00   77.2    32    6.2   210    13.7   876.8    0.00 
 210    0:40   0.00   77.1    32    5.9   206    11.8   876.8    0.00 
 210    0:50   0.00   76.8    33    6.2   204    10.7   876.8    0.00 
 210    1:00   0.00   76.9    34    7.3   213    13.7   876.8    0.00 
 210    1:10   0.00   76.7    35    5.5   207    11.5   876.8    0.00 
 210    1:20   0.00   76.5    37    6.2   200    11.2   876.8    0.00 
 210    1:30   0.00   76.2    39    5.3   202    12.9   876.8    0.00 
 210    1:40   0.00   76.5    40    7.3   212    11.2   876.8    0.00 
 210    1:50   0.00   76.4    40    7.4   213    13.7   876.8    0.00 
 210    2:00   0.00   76.1    40    6.0   211     9.4   876.8    0.00 
 210    2:10   0.00   75.9    41    5.2   212     8.4   876.8    0.00 
 210    2:20   0.00   75.6    41    6.4   214    10.4   876.8    0.00 
 210    2:30   0.00   76.0    41    8.7   211    12.0   876.9    0.00 
 210    2:40   0.00   76.1    41    7.2   213    10.2   876.8    0.00 
 210    2:50   0.00   75.5    42    6.3   213    12.9   876.8    0.00 
 210    3:00   0.00   75.5    43    9.5   211    15.0   876.9    0.00 
 210    3:10   0.00   75.6    44   11.1   212    16.9   877.0    0.00 
 210    3:20   0.00   75.2    46   13.2   212    20.8   877.0    0.00 
 210    3:30   0.00   74.8    46   12.4   215    17.8   877.0    0.00 
 210    3:40   0.00   74.3    47   11.0   214    17.5   876.9    0.00 
 210    3:50   0.00   73.8    48    7.6   219    13.3   876.9    0.00 
 210    4:00   0.00   73.3    49    8.6   221    16.3   876.9    0.00 
 210    4:10   0.00   72.9    48    8.8   217    13.5   876.9    0.00 
 210    4:20   0.00   72.7    47    8.3   215    14.3   877.0    0.00 
 210    4:30   0.00   72.4    48    8.3   216    13.9   877.0    0.00 
 210    4:40   0.00   72.4    48    8.2   229    12.9   877.0    0.00 
 210    4:50   0.00   72.3    48    6.8   223    12.1   877.0    0.00 
 210    5:00   0.00   71.9    49    5.3   204     8.2   877.1    0.00 
 210    5:10   0.00   71.6    50    6.1   204     9.5   877.2    0.00 
 210    5:20   0.01   71.7    50    9.2   210    13.7   877.2    0.00 
 210    5:30   0.02   71.8    50    8.2   212    11.0   877.3    0.00 
 210    5:40   0.06   72.5    50    5.7   220     9.3   877.5    0.00 
 210    5:50   0.10   74.3    47    5.7   196     8.5   877.5    0.00 
 210    6:00   0.13   75.9    44    7.4   166    10.3   877.8    0.00 
 210    6:10   0.17   76.2    44    6.0   184    10.9   877.9    0.00 
 210    6:20   0.17   76.2    44    5.2   188     9.6   878.0    0.00 
 210    6:30   0.23   77.6    42    5.2   190     8.9   878.1    0.00 
 210    6:40   0.28   77.4    42    4.7   204     8.6   878.3    0.00 
 210    6:50   0.33   78.7    40    4.5   208     8.6   878.4    0.00 
 210    7:00   0.35   79.6    38    4.2   188     7.4   878.5    0.00 
 210    7:10   0.38   80.4    37    5.4   192     8.8   878.6    0.00 
 210    7:20   0.41   81.0    36    4.2   194     6.4   878.6    0.00 
 210    7:30   0.43   81.2    35    3.6   213     6.1   878.6    0.00 
 210    7:40   0.50   83.6    32    1.8   190     5.0   878.7    0.00 
 210    7:50   0.43   84.5    32    4.4   187     7.1   878.8    0.00 
 210    8:00   0.41   82.9    34    6.7   146    14.2   879.0    0.00 
 210    8:10   0.77   83.1    33    5.4   194    11.3   879.2    0.00 
 210    8:20   0.74   81.2    36    9.8   209    17.8   879.4    0.00 
 210    8:30   0.71   80.1    38    8.6   208    17.1   879.5    0.00 
 210    8:40   0.68   80.2    39    8.6   216    14.5   879.6    0.00 
 210    8:50   0.71   79.5    41   10.1   216    16.7   879.7    0.00 
 210    9:00   0.77   79.1    43    9.8   211    19.6   879.6    0.00 
 210    9:10   0.75   79.4    45    9.1   231    16.3   879.6    0.00 
 210    9:20   0.77   78.8    46    9.9   227    16.0   879.6    0.00 
 210    9:30   0.80   78.9    48   10.1   212    17.9   879.6    0.00 
 210    9:40   0.82   79.1    50    9.4   216    19.1   879.7    0.00 
 210    9:50   0.86   78.6    52   10.7   205    19.4   879.7    0.00 
 210   10:00   0.90   79.5    50    9.8   203    16.1   879.7    0.00 
 210   10:10   0.90   80.1    48    9.3   196    19.1   879.7    0.00 
 210   10:20   0.89   80.2    48   10.8   204    18.7   879.7    0.00 
 210   10:30   0.91   80.4    46    8.1   202    16.4   879.6    0.00 
 210   10:40   0.93   82.7    41    7.7   204    14.4   879.6    0.00 
 210   10:50   0.91   84.2    38    7.9   200    16.4   879.7    0.00 
 210   11:00   0.53   81.7    42    6.9   198    15.5   879.7    0.00 
 210   11:10   0.41   81.1    43    9.1   218    16.9   879.6    0.00 
 210   11:20   0.42   80.7    45    8.3   220    16.1   879.6    0.00 
 210   11:30   0.79   81.4    44    9.1   200    17.6   879.6    0.00 
 210   11:40   0.87   84.5    39    8.6   192    15.0   879.5    0.00 
 210   11:50   0.48   82.8    42    7.8   211    14.8   879.6    0.00 
 210   12:00   0.45   82.7    41    6.8   220    12.6   879.6    0.00 

Return to Burns Pinion Ridge Reserve graphs page.


Western Regional Climate Center,wrcc@dri.edu